sensor_id;sensor_type;location;lat;lon;timestamp;pressure;altitude;pressure_sealevel;temperature;humidity
21109;BME280;10712;52.944;9.098;2023-09-08T00:01:51;101894.06;;;26.46;62.57
21109;BME280;10712;52.944;9.098;2023-09-08T00:04:17;101890.63;;;26.44;62.81
21109;BME280;10712;52.944;9.098;2023-09-08T00:06:42;101892.66;;;26.42;62.79
21109;BME280;10712;52.944;9.098;2023-09-08T00:09:08;101889.94;;;26.42;62.67
21109;BME280;10712;52.944;9.098;2023-09-08T00:11:34;101894.75;;;26.48;62.63
21109;BME280;10712;52.944;9.098;2023-09-08T00:14:00;101890.31;;;26.47;62.66
21109;BME280;10712;52.944;9.098;2023-09-08T00:16:26;101885.16;;;26.44;62.80
21109;BME280;10712;52.944;9.098;2023-09-08T00:18:52;101880.34;;;26.38;62.77
21109;BME280;10712;52.944;9.098;2023-09-08T00:21:18;101878.63;;;26.37;62.88
21109;BME280;10712;52.944;9.098;2023-09-08T00:23:44;101875.22;;;26.35;62.61
21109;BME280;10712;52.944;9.098;2023-09-08T00:26:09;101876.41;;;26.33;62.73
21109;BME280;10712;52.944;9.098;2023-09-08T00:28:36;101873.53;;;26.34;62.68
21109;BME280;10712;52.944;9.098;2023-09-08T00:31:01;101873.34;;;26.36;62.71
21109;BME280;10712;52.944;9.098;2023-09-08T00:33:27;101873.53;;;26.34;62.43
21109;BME280;10712;52.944;9.098;2023-09-08T00:35:53;101869.75;;;26.35;62.39
21109;BME280;10712;52.944;9.098;2023-09-08T00:38:23;101874.19;;;26.36;62.38
21109;BME280;10712;52.944;9.098;2023-09-08T00:40:49;101874.91;;;26.38;62.51
21109;BME280;10712;52.944;9.098;2023-09-08T00:43:16;101879.66;;;26.36;62.42
21109;BME280;10712;52.944;9.098;2023-09-08T00:45:43;101876.59;;;26.39;62.60
21109;BME280;10712;52.944;9.098;2023-09-08T00:48:12;101872.84;;;26.40;62.64
21109;BME280;10712;52.944;9.098;2023-09-08T00:50:38;101874.91;;;26.38;62.68
21109;BME280;10712;52.944;9.098;2023-09-08T00:53:08;101874.34;;;26.26;63.00
21109;BME280;10712;52.944;9.098;2023-09-08T00:55:34;101872.25;;;26.20;63.10
21109;BME280;10712;52.944;9.098;2023-09-08T00:58:01;101868.31;;;26.23;63.10
21109;BME280;10712;52.944;9.098;2023-09-08T01:00:28;101865.91;;;26.20;63.26
21109;BME280;10712;52.944;9.098;2023-09-08T01:02:54;101869.31;;;26.22;63.14
21109;BME280;10712;52.944;9.098;2023-09-08T01:05:20;101864.56;;;26.24;63.20
21109;BME280;10712;52.944;9.098;2023-09-08T01:07:48;101858.09;;;26.25;63.09
21109;BME280;10712;52.944;9.098;2023-09-08T01:10:15;101855.50;;;26.23;63.02
21109;BME280;10712;52.944;9.098;2023-09-08T01:12:41;101860.09;;;26.23;62.88
21109;BME280;10712;52.944;9.098;2023-09-08T01:15:07;101860.97;;;26.23;63.21
21109;BME280;10712;52.944;9.098;2023-09-08T01:17:35;101864.50;;;26.16;63.17
21109;BME280;10712;52.944;9.098;2023-09-08T01:20:41;101864.31;;;26.09;63.21
21109;BME280;10712;52.944;9.098;2023-09-08T01:24:06;101865.50;;;26.07;63.66
21109;BME280;10712;52.944;9.098;2023-09-08T01:26:41;101860.06;;;26.07;63.54
21109;BME280;10712;52.944;9.098;2023-09-08T01:29:10;101864.81;;;26.05;63.55
21109;BME280;10712;52.944;9.098;2023-09-08T01:31:37;101869.38;;;25.96;63.68
21109;BME280;10712;52.944;9.098;2023-09-08T01:34:05;101867.44;;;25.88;63.90
21109;BME280;10712;52.944;9.098;2023-09-08T01:36:35;101862.69;;;25.91;63.81
21109;BME280;10712;52.944;9.098;2023-09-08T01:39:02;101861.66;;;25.92;63.71
21109;BME280;10712;52.944;9.098;2023-09-08T01:41:28;101853.44;;;25.83;63.87
21109;BME280;10712;52.944;9.098;2023-09-08T01:43:55;101861.94;;;25.80;63.96
21109;BME280;10712;52.944;9.098;2023-09-08T01:46:21;101853.53;;;25.74;64.22
21109;BME280;10712;52.944;9.098;2023-09-08T01:48:47;101856.75;;;25.69;64.29
21109;BME280;10712;52.944;9.098;2023-09-08T01:51:13;101849.56;;;25.68;64.24
21109;BME280;10712;52.944;9.098;2023-09-08T01:53:40;101844.44;;;25.65;64.53
21109;BME280;10712;52.944;9.098;2023-09-08T01:56:06;101848.19;;;25.64;64.55
21109;BME280;10712;52.944;9.098;2023-09-08T01:58:31;101846.13;;;25.66;64.52
21109;BME280;10712;52.944;9.098;2023-09-08T02:00:59;101853.31;;;25.67;64.52
21109;BME280;10712;52.944;9.098;2023-09-08T02:03:32;101846.13;;;25.66;64.58
21109;BME280;10712;52.944;9.098;2023-09-08T02:05:59;101839.81;;;25.66;64.56
21109;BME280;10712;52.944;9.098;2023-09-08T02:08:25;101840.31;;;25.61;64.79
21109;BME280;10712;52.944;9.098;2023-09-08T02:10:51;101847.66;;;25.61;64.45
21109;BME280;10712;52.944;9.098;2023-09-08T02:13:17;101842.63;;;25.56;64.56
21109;BME280;10712;52.944;9.098;2023-09-08T02:15:43;101843.50;;;25.57;64.74
21109;BME280;10712;52.944;9.098;2023-09-08T02:18:09;101841.63;;;25.57;64.67
21109;BME280;10712;52.944;9.098;2023-09-08T02:20:35;101848.25;;;25.55;64.51
21109;BME280;10712;52.944;9.098;2023-09-08T02:23:06;101847.72;;;25.51;64.54
21109;BME280;10712;52.944;9.098;2023-09-08T02:25:33;101841.41;;;25.50;64.57
21109;BME280;10712;52.944;9.098;2023-09-08T02:27:59;101835.75;;;25.44;64.71
21109;BME280;10712;52.944;9.098;2023-09-08T02:30:25;101844.09;;;25.42;64.58
21109;BME280;10712;52.944;9.098;2023-09-08T02:32:52;101847.13;;;25.39;64.60
21109;BME280;10712;52.944;9.098;2023-09-08T02:35:18;101843.88;;;25.36;64.59
21109;BME280;10712;52.944;9.098;2023-09-08T02:37:44;101847.59;;;25.35;64.56
21109;BME280;10712;52.944;9.098;2023-09-08T02:40:10;101836.31;;;25.30;64.52
21109;BME280;10712;52.944;9.098;2023-09-08T02:42:37;101845.81;;;25.26;64.61
21109;BME280;10712;52.944;9.098;2023-09-08T02:45:03;101837.09;;;25.22;64.82
21109;BME280;10712;52.944;9.098;2023-09-08T02:47:28;101843.41;;;25.23;64.65
21109;BME280;10712;52.944;9.098;2023-09-08T02:49:56;101832.50;;;25.23;64.72
21109;BME280;10712;52.944;9.098;2023-09-08T02:52:22;101838.97;;;25.22;64.76
21109;BME280;10712;52.944;9.098;2023-09-08T02:54:48;101839.28;;;25.19;65.05
21109;BME280;10712;52.944;9.098;2023-09-08T02:57:14;101834.53;;;25.21;64.87
21109;BME280;10712;52.944;9.098;2023-09-08T02:59:40;101832.81;;;25.20;65.26
21109;BME280;10712;52.944;9.098;2023-09-08T03:02:07;101834.91;;;25.26;65.04
21109;BME280;10712;52.944;9.098;2023-09-08T03:04:33;101833.19;;;25.25;65.15
21109;BME280;10712;52.944;9.098;2023-09-08T03:07:00;101837.09;;;25.22;65.12
21109;BME280;10712;52.944;9.098;2023-09-08T03:09:27;101836.25;;;25.22;65.35
21109;BME280;10712;52.944;9.098;2023-09-08T03:11:53;101821.59;;;25.23;65.38
21109;BME280;10712;52.944;9.098;2023-09-08T03:14:18;101825.47;;;25.20;65.26
21109;BME280;10712;52.944;9.098;2023-09-08T03:16:45;101825.63;;;25.19;65.51
21109;BME280;10712;52.944;9.098;2023-09-08T03:19:10;101826.97;;;25.15;65.45
21109;BME280;10712;52.944;9.098;2023-09-08T03:21:36;101820.53;;;25.16;65.24
21109;BME280;10712;52.944;9.098;2023-09-08T03:24:04;101818.81;;;25.15;65.65
21109;BME280;10712;52.944;9.098;2023-09-08T03:26:30;101818.81;;;25.15;65.58
21109;BME280;10712;52.944;9.098;2023-09-08T03:28:55;101825.13;;;25.15;65.51
21109;BME280;10712;52.944;9.098;2023-09-08T03:31:21;101819.66;;;25.15;65.59
21109;BME280;10712;52.944;9.098;2023-09-08T03:33:47;101812.47;;;25.14;65.45
21109;BME280;10712;52.944;9.098;2023-09-08T03:36:13;101808.91;;;25.14;65.73
21109;BME280;10712;52.944;9.098;2023-09-08T03:38:39;101821.81;;;25.11;65.58
21109;BME280;10712;52.944;9.098;2023-09-08T03:41:06;101813.56;;;25.03;65.97
21109;BME280;10712;52.944;9.098;2023-09-08T03:43:32;101809.16;;;25.02;65.96
21109;BME280;10712;52.944;9.098;2023-09-08T03:45:58;101818.66;;;24.98;66.11
21109;BME280;10712;52.944;9.098;2023-09-08T03:48:24;101813.53;;;24.95;66.06
21109;BME280;10712;52.944;9.098;2023-09-08T03:50:49;101817.56;;;24.91;66.47
21109;BME280;10712;52.944;9.098;2023-09-08T03:53:15;101818.72;;;24.89;66.36
21109;BME280;10712;52.944;9.098;2023-09-08T03:55:41;101821.88;;;24.84;66.35
21109;BME280;10712;52.944;9.098;2023-09-08T03:58:07;101818.47;;;24.82;66.43
21109;BME280;10712;52.944;9.098;2023-09-08T04:00:32;101806.88;;;24.80;66.27
21109;BME280;10712;52.944;9.098;2023-09-08T04:02:58;101808.19;;;24.76;66.42
21109;BME280;10712;52.944;9.098;2023-09-08T04:05:24;101806.78;;;24.72;66.47
21109;BME280;10712;52.944;9.098;2023-09-08T04:07:50;101802.69;;;24.68;66.76
21109;BME280;10712;52.944;9.098;2023-09-08T04:10:17;101798.53;;;24.64;66.46
21109;BME280;10712;52.944;9.098;2023-09-08T04:12:43;101805.69;;;24.65;66.75
21109;BME280;10712;52.944;9.098;2023-09-08T04:15:10;101806.41;;;24.67;66.81
21109;BME280;10712;52.944;9.098;2023-09-08T04:17:37;101805.69;;;24.65;66.85
21109;BME280;10712;52.944;9.098;2023-09-08T04:20:06;101810.84;;;24.68;66.74
21109;BME280;10712;52.944;9.098;2023-09-08T04:22:34;101809.44;;;24.64;67.11
21109;BME280;10712;52.944;9.098;2023-09-08T04:25:01;101804.13;;;24.62;67.26
21109;BME280;10712;52.944;9.098;2023-09-08T04:27:27;101804.84;;;24.64;67.25
21109;BME280;10712;52.944;9.098;2023-09-08T04:29:53;101795.41;;;24.59;67.26
21109;BME280;10712;52.944;9.098;2023-09-08T04:32:19;101796.81;;;24.63;67.17
21109;BME280;10712;52.944;9.098;2023-09-08T04:34:45;101799.16;;;24.58;67.54
21109;BME280;10712;52.944;9.098;2023-09-08T04:37:11;101798.63;;;24.54;67.50
21109;BME280;10712;52.944;9.098;2023-09-08T04:39:36;101802.34;;;24.53;67.57
21109;BME280;10712;52.944;9.098;2023-09-08T04:42:03;101798.75;;;24.53;67.48
21109;BME280;10712;52.944;9.098;2023-09-08T04:44:29;101792.59;;;24.51;67.47
21109;BME280;10712;52.944;9.098;2023-09-08T04:46:55;101799.78;;;24.52;67.49
21109;BME280;10712;52.944;9.098;2023-09-08T04:49:21;101797.03;;;24.52;67.53
21109;BME280;10712;52.944;9.098;2023-09-08T04:51:48;101787.16;;;24.51;67.56
21109;BME280;10712;52.944;9.098;2023-09-08T04:54:17;101794.00;;;24.55;67.62
21109;BME280;10712;52.944;9.098;2023-09-08T04:56:42;101788.88;;;24.52;67.48
21109;BME280;10712;52.944;9.098;2023-09-08T04:59:08;101795.03;;;24.54;67.61
21109;BME280;10712;52.944;9.098;2023-09-08T05:01:34;101796.19;;;24.51;67.52
21109;BME280;10712;52.944;9.098;2023-09-08T05:04:04;101792.94;;;24.48;67.58
21109;BME280;10712;52.944;9.098;2023-09-08T05:06:30;101793.22;;;24.45;67.88
21109;BME280;10712;52.944;9.098;2023-09-08T05:08:59;101796.66;;;24.47;67.67
21109;BME280;10712;52.944;9.098;2023-09-08T05:11:26;101801.53;;;24.43;67.72
21109;BME280;10712;52.944;9.098;2023-09-08T05:13:53;101799.81;;;24.42;67.95
21109;BME280;10712;52.944;9.098;2023-09-08T05:16:19;101801.41;;;24.45;68.00
21109;BME280;10712;52.944;9.098;2023-09-08T05:18:51;101792.38;;;24.44;68.12
21109;BME280;10712;52.944;9.098;2023-09-08T05:21:17;101794.22;;;24.44;68.11
21109;BME280;10712;52.944;9.098;2023-09-08T05:23:43;101790.22;;;24.48;68.11
21109;BME280;10712;52.944;9.098;2023-09-08T05:26:10;101790.25;;;24.56;68.06
21109;BME280;10712;52.944;9.098;2023-09-08T05:28:37;101791.69;;;24.60;67.90
21109;BME280;10712;52.944;9.098;2023-09-08T05:31:03;101791.34;;;24.63;67.95
21109;BME280;10712;52.944;9.098;2023-09-08T05:33:30;101790.34;;;24.64;67.86
21109;BME280;10712;52.944;9.098;2023-09-08T05:35:56;101796.91;;;24.71;67.75
21109;BME280;10712;52.944;9.098;2023-09-08T05:38:23;101794.16;;;24.71;67.73
21109;BME280;10712;52.944;9.098;2023-09-08T05:40:51;101801.88;;;24.76;67.59
21109;BME280;10712;52.944;9.098;2023-09-08T05:43:17;101793.53;;;24.77;67.57
21109;BME280;10712;52.944;9.098;2023-09-08T05:45:42;101791.53;;;24.79;67.74
21109;BME280;10712;52.944;9.098;2023-09-08T05:48:09;101795.25;;;24.78;67.69
21109;BME280;10712;52.944;9.098;2023-09-08T05:50:34;101795.59;;;24.75;67.95
21109;BME280;10712;52.944;9.098;2023-09-08T05:53:01;101784.50;;;24.77;68.04
21109;BME280;10712;52.944;9.098;2023-09-08T05:55:27;101793.41;;;24.79;68.08
21109;BME280;10712;52.944;9.098;2023-09-08T05:57:53;101792.69;;;24.77;68.32
21109;BME280;10712;52.944;9.098;2023-09-08T06:00:20;101786.38;;;24.76;68.32
21109;BME280;10712;52.944;9.098;2023-09-08T06:02:49;101788.09;;;24.77;68.53
21109;BME280;10712;52.944;9.098;2023-09-08T06:05:17;101785.78;;;24.82;68.63
21109;BME280;10712;52.944;9.098;2023-09-08T06:07:43;101787.16;;;24.86;68.51
21109;BME280;10712;52.944;9.098;2023-09-08T06:10:10;101792.88;;;24.93;68.17
21109;BME280;10712;52.944;9.098;2023-09-08T06:12:37;101788.81;;;24.97;68.11
21109;BME280;10712;52.944;9.098;2023-09-08T06:15:03;101788.72;;;25.06;67.92
21109;BME280;10712;52.944;9.098;2023-09-08T06:17:30;101784.66;;;25.10;67.81
21109;BME280;10712;52.944;9.098;2023-09-08T06:19:56;101786.06;;;25.15;67.76
21109;BME280;10712;52.944;9.098;2023-09-08T06:22:22;101791.91;;;25.20;67.65
21109;BME280;10712;52.944;9.098;2023-09-08T06:24:48;101789.94;;;25.30;67.61
21109;BME280;10712;52.944;9.098;2023-09-08T06:27:15;101786.88;;;25.33;67.42
21109;BME280;10712;52.944;9.098;2023-09-08T06:29:41;101789.28;;;25.36;67.63
21109;BME280;10712;52.944;9.098;2023-09-08T06:32:10;101793.78;;;25.45;67.62
21109;BME280;10712;52.944;9.098;2023-09-08T06:34:39;101794.16;;;25.50;67.50
21109;BME280;10712;52.944;9.098;2023-09-08T06:37:05;101787.34;;;25.54;67.55
21109;BME280;10712;52.944;9.098;2023-09-08T06:39:32;101786.44;;;25.63;67.26
21109;BME280;10712;52.944;9.098;2023-09-08T06:41:58;101792.25;;;25.68;67.03
21109;BME280;10712;52.944;9.098;2023-09-08T06:44:24;101788.00;;;25.74;67.11
21109;BME280;10712;52.944;9.098;2023-09-08T06:46:50;101792.28;;;25.76;67.38
21109;BME280;10712;52.944;9.098;2023-09-08T06:49:16;101796.44;;;25.88;67.24
21109;BME280;10712;52.944;9.098;2023-09-08T06:51:42;101799.72;;;25.92;67.25
21109;BME280;10712;52.944;9.098;2023-09-08T06:54:08;101793.44;;;26.00;67.10
21109;BME280;10712;52.944;9.098;2023-09-08T06:56:38;101788.69;;;26.10;67.04
21109;BME280;10712;52.944;9.098;2023-09-08T06:59:05;101786.66;;;26.12;67.16
21109;BME280;10712;52.944;9.098;2023-09-08T07:01:31;101786.69;;;26.20;67.04
21109;BME280;10712;52.944;9.098;2023-09-08T07:03:57;101789.13;;;26.31;66.81
21109;BME280;10712;52.944;9.098;2023-09-08T07:06:23;101792.59;;;26.41;66.73
21109;BME280;10712;52.944;9.098;2023-09-08T07:08:49;101789.84;;;26.49;66.60
21109;BME280;10712;52.944;9.098;2023-09-08T07:11:17;101782.03;;;26.54;66.58
21109;BME280;10712;52.944;9.098;2023-09-08T07:13:43;101784.09;;;26.60;66.61
21109;BME280;10712;52.944;9.098;2023-09-08T07:16:09;101791.44;;;26.60;66.78
21109;BME280;10712;52.944;9.098;2023-09-08T07:18:36;101788.50;;;26.70;66.62
21109;BME280;10712;52.944;9.098;2023-09-08T07:21:04;101785.47;;;26.73;66.37
21109;BME280;10712;52.944;9.098;2023-09-08T07:23:30;101786.00;;;26.92;65.80
21109;BME280;10712;52.944;9.098;2023-09-08T07:25:56;101793.53;;;26.90;65.99
21109;BME280;10712;52.944;9.098;2023-09-08T07:28:26;101794.06;;;26.94;66.13
21109;BME280;10712;52.944;9.098;2023-09-08T07:30:53;101793.38;;;27.00;66.23
21109;BME280;10712;52.944;9.098;2023-09-08T07:33:20;101793.53;;;27.07;66.29
21109;BME280;10712;52.944;9.098;2023-09-08T07:35:48;101783.97;;;27.11;66.58
21109;BME280;10712;52.944;9.098;2023-09-08T07:38:14;101781.72;;;27.14;66.88
21109;BME280;10712;52.944;9.098;2023-09-08T07:40:41;101783.78;;;27.20;66.55
21109;BME280;10712;52.944;9.098;2023-09-08T07:43:07;101785.50;;;27.29;66.47
21109;BME280;10712;52.944;9.098;2023-09-08T07:45:33;101794.72;;;27.36;66.15
21109;BME280;10712;52.944;9.098;2023-09-08T07:47:59;101796.06;;;27.40;66.32
21109;BME280;10712;52.944;9.098;2023-09-08T07:50:28;101787.00;;;27.48;66.10
21109;BME280;10712;52.944;9.098;2023-09-08T07:52:56;101796.41;;;27.54;66.06
21109;BME280;10712;52.944;9.098;2023-09-08T07:55:24;101793.81;;;27.60;66.14
21109;BME280;10712;52.944;9.098;2023-09-08T07:57:53;101789.91;;;27.63;66.15
21109;BME280;10712;52.944;9.098;2023-09-08T08:00:19;101783.88;;;27.67;66.27
21109;BME280;10712;52.944;9.098;2023-09-08T08:02:53;101785.06;;;27.73;66.53
21109;BME280;10712;52.944;9.098;2023-09-08T08:05:19;101793.25;;;27.81;66.38
21109;BME280;10712;52.944;9.098;2023-09-08T08:07:45;101783.31;;;27.88;66.27
21109;BME280;10712;52.944;9.098;2023-09-08T08:10:12;101788.75;;;27.96;66.27
21109;BME280;10712;52.944;9.098;2023-09-08T08:12:42;101795.22;;;28.03;66.05
21109;BME280;10712;52.944;9.098;2023-09-08T08:15:09;101795.03;;;28.13;65.79
21109;BME280;10712;52.944;9.098;2023-09-08T08:17:36;101800.84;;;28.18;65.67
21109;BME280;10712;52.944;9.098;2023-09-08T08:20:04;101791.00;;;28.32;65.22
21109;BME280;10712;52.944;9.098;2023-09-08T08:22:38;101786.16;;;28.42;65.00
21109;BME280;10712;52.944;9.098;2023-09-08T08:25:05;101796.72;;;28.53;64.36
21109;BME280;10712;52.944;9.098;2023-09-08T08:27:31;101793.25;;;28.59;64.33
21109;BME280;10712;52.944;9.098;2023-09-08T08:30:00;101792.16;;;28.68;64.56
21109;BME280;10712;52.944;9.098;2023-09-08T08:32:29;101789.56;;;28.75;64.49
21109;BME280;10712;52.944;9.098;2023-09-08T08:34:55;101783.16;;;28.82;64.72
21109;BME280;10712;52.944;9.098;2023-09-08T08:37:22;101783.75;;;28.92;64.21
21109;BME280;10712;52.944;9.098;2023-09-08T08:39:48;101778.88;;;29.03;64.47
21109;BME280;10712;52.944;9.098;2023-09-08T08:42:14;101783.63;;;29.09;64.65
21109;BME280;10712;52.944;9.098;2023-09-08T08:44:41;101778.53;;;29.20;64.38
21109;BME280;10712;52.944;9.098;2023-09-08T08:47:08;101772.63;;;29.31;64.44
21109;BME280;10712;52.944;9.098;2023-09-08T08:49:36;101779.09;;;29.39;64.30
21109;BME280;10712;52.944;9.098;2023-09-08T08:52:03;101783.44;;;29.48;63.99
21109;BME280;10712;52.944;9.098;2023-09-08T08:54:39;101784.03;;;29.58;63.66
21109;BME280;10712;52.944;9.098;2023-09-08T08:57:06;101780.44;;;29.72;62.96
21109;BME280;10712;52.944;9.098;2023-09-08T08:59:32;101787.34;;;29.83;62.18
21109;BME280;10712;52.944;9.098;2023-09-08T09:01:59;101781.41;;;29.94;62.35
21109;BME280;10712;52.944;9.098;2023-09-08T09:04:26;101791.91;;;30.05;62.27
21109;BME280;10712;52.944;9.098;2023-09-08T09:06:55;101787.34;;;30.12;62.25
21109;BME280;10712;52.944;9.098;2023-09-08T09:09:24;101782.38;;;30.22;62.45
21109;BME280;10712;52.944;9.098;2023-09-08T09:11:50;101775.53;;;30.33;62.47
21109;BME280;10712;52.944;9.098;2023-09-08T09:14:16;101776.72;;;30.45;62.42
21109;BME280;10712;52.944;9.098;2023-09-08T09:16:45;101772.25;;;30.59;62.23
21109;BME280;10712;52.944;9.098;2023-09-08T09:19:22;101770.63;;;30.64;61.46
21109;BME280;10712;52.944;9.098;2023-09-08T09:21:55;101770.97;;;30.76;61.17
21109;BME280;10712;52.944;9.098;2023-09-08T09:27:04;101773.44;;;30.92;61.05
21109;BME280;10712;52.944;9.098;2023-09-08T09:29:31;101779.47;;;31.02;59.95
21109;BME280;10712;52.944;9.098;2023-09-08T09:32:04;101775.13;;;31.14;60.21
21109;BME280;10712;52.944;9.098;2023-09-08T09:34:31;101766.97;;;31.27;59.87
21109;BME280;10712;52.944;9.098;2023-09-08T09:36:57;101760.66;;;31.34;59.68
21109;BME280;10712;52.944;9.098;2023-09-08T09:39:25;101750.56;;;31.41;59.60
21109;BME280;10712;52.944;9.098;2023-09-08T09:41:56;101747.84;;;31.47;60.07
21109;BME280;10712;52.944;9.098;2023-09-08T09:44:24;101753.66;;;31.59;59.61
21109;BME280;10712;52.944;9.098;2023-09-08T09:46:53;101745.25;;;31.67;60.15
21109;BME280;10712;52.944;9.098;2023-09-08T09:49:19;101745.31;;;31.80;59.83
21109;BME280;10712;52.944;9.098;2023-09-08T09:51:48;101744.06;;;31.89;60.22
21109;BME280;10712;52.944;9.098;2023-09-08T09:54:15;101742.44;;;32.01;60.28
21109;BME280;10712;52.944;9.098;2023-09-08T09:56:42;101742.91;;;32.12;60.14
21109;BME280;10712;52.944;9.098;2023-09-08T09:59:11;101740.00;;;32.20;59.92
21109;BME280;10712;52.944;9.098;2023-09-08T10:01:39;101742.56;;;32.28;60.03
21109;BME280;10712;52.944;9.098;2023-09-08T10:04:06;101749.81;;;32.35;59.66
21109;BME280;10712;52.944;9.098;2023-09-08T10:06:37;101737.91;;;32.35;59.20
21109;BME280;10712;52.944;9.098;2023-09-08T10:09:05;101741.09;;;32.45;58.93
21109;BME280;10712;52.944;9.098;2023-09-08T10:11:48;101733.28;;;32.55;58.48
21109;BME280;10712;52.944;9.098;2023-09-08T10:14:18;101735.91;;;32.70;57.71
21109;BME280;10712;52.944;9.098;2023-09-08T10:16:45;101739.28;;;32.78;57.70
21109;BME280;10712;52.944;9.098;2023-09-08T10:19:16;101741.81;;;32.87;57.61
21109;BME280;10712;52.944;9.098;2023-09-08T10:21:45;101744.78;;;32.92;58.15
21109;BME280;10712;52.944;9.098;2023-09-08T10:24:26;101734.59;;;32.99;58.46
21109;BME280;10712;52.944;9.098;2023-09-08T10:27:09;101728.88;;;33.07;58.90
21109;BME280;10712;52.944;9.098;2023-09-08T10:29:39;101722.94;;;33.23;59.22
21109;BME280;10712;52.944;9.098;2023-09-08T10:32:08;101723.13;;;33.35;58.42
21109;BME280;10712;52.944;9.098;2023-09-08T10:34:36;101722.69;;;33.44;58.08
21109;BME280;10712;52.944;9.098;2023-09-08T10:37:24;101704.41;;;33.50;58.19
21109;BME280;10712;52.944;9.098;2023-09-08T10:39:51;101705.19;;;33.63;57.68
21109;BME280;10712;52.944;9.098;2023-09-08T10:47:10;101712.63;;;33.76;56.64
21109;BME280;10712;52.944;9.098;2023-09-08T10:49:36;101706.44;;;33.81;56.54
21109;BME280;10712;52.944;9.098;2023-09-08T10:52:12;101706.00;;;33.84;56.25
21109;BME280;10712;52.944;9.098;2023-09-08T10:54:48;101706.19;;;33.89;56.37
21109;BME280;10712;52.944;9.098;2023-09-08T10:57:22;101692.75;;;33.99;55.85
21109;BME280;10712;52.944;9.098;2023-09-08T10:59:59;101697.41;;;33.98;55.41
21109;BME280;10712;52.944;9.098;2023-09-08T11:02:48;101692.91;;;34.04;56.03
21109;BME280;10712;52.944;9.098;2023-09-08T11:05:15;101689.22;;;34.17;55.81
21109;BME280;10712;52.944;9.098;2023-09-08T11:07:43;101692.41;;;34.27;56.03
21109;BME280;10712;52.944;9.098;2023-09-08T11:10:12;101697.25;;;34.31;55.58
21109;BME280;10712;52.944;9.098;2023-09-08T11:12:38;101701.91;;;34.37;55.46
21109;BME280;10712;52.944;9.098;2023-09-08T11:15:06;101702.69;;;34.45;55.77
21109;BME280;10712;52.944;9.098;2023-09-08T11:17:36;101704.78;;;34.56;54.71
21109;BME280;10712;52.944;9.098;2023-09-08T11:20:05;101706.47;;;34.57;54.83
21109;BME280;10712;52.944;9.098;2023-09-08T11:22:39;101700.69;;;34.58;55.04
21109;BME280;10712;52.944;9.098;2023-09-08T11:25:10;101706.78;;;34.67;54.82
21109;BME280;10712;52.944;9.098;2023-09-08T11:27:37;101698.25;;;34.75;54.71
21109;BME280;10712;52.944;9.098;2023-09-08T11:30:07;101699.47;;;34.79;54.38
21109;BME280;10712;52.944;9.098;2023-09-08T11:32:35;101704.16;;;34.85;54.49
21109;BME280;10712;52.944;9.098;2023-09-08T11:35:09;101697.69;;;34.91;53.75
21109;BME280;10712;52.944;9.098;2023-09-08T11:37:40;101707.16;;;35.02;53.91
21109;BME280;10712;52.944;9.098;2023-09-08T11:40:09;101702.56;;;35.14;53.69
21109;BME280;10712;52.944;9.098;2023-09-08T11:42:42;101685.94;;;35.14;53.21
21109;BME280;10712;52.944;9.098;2023-09-08T11:45:12;101699.56;;;35.15;53.36
21109;BME280;10712;52.944;9.098;2023-09-08T11:47:42;101694.88;;;35.16;52.99
21109;BME280;10712;52.944;9.098;2023-09-08T11:50:10;101690.56;;;35.20;53.38
21109;BME280;10712;52.944;9.098;2023-09-08T11:52:59;101688.06;;;35.19;53.65
21109;BME280;10712;52.944;9.098;2023-09-08T11:55:26;101686.69;;;35.28;53.54
21109;BME280;10712;52.944;9.098;2023-09-08T11:57:53;101691.78;;;35.31;53.59
21109;BME280;10712;52.944;9.098;2023-09-08T12:00:29;101681.75;;;35.48;52.58
21109;BME280;10712;52.944;9.098;2023-09-08T12:02:56;101675.78;;;35.51;51.98
21109;BME280;10712;52.944;9.098;2023-09-08T12:05:34;101674.84;;;35.57;51.61
21109;BME280;10712;52.944;9.098;2023-09-08T12:08:04;101677.63;;;35.57;51.80
21109;BME280;10712;52.944;9.098;2023-09-08T12:10:38;101679.44;;;35.63;51.92
21109;BME280;10712;52.944;9.098;2023-09-08T12:13:04;101685.78;;;35.70;51.23
21109;BME280;10712;52.944;9.098;2023-09-08T12:18:02;101674.25;;;35.73;50.57
21109;BME280;10712;52.944;9.098;2023-09-08T12:20:29;101687.03;;;35.74;50.43
21109;BME280;10712;52.944;9.098;2023-09-08T12:23:20;101675.47;;;35.77;51.26
21109;BME280;10712;52.944;9.098;2023-09-08T12:25:50;101672.81;;;35.82;50.90
21109;BME280;10712;52.944;9.098;2023-09-08T12:28:19;101669.38;;;35.87;50.53
21109;BME280;10712;52.944;9.098;2023-09-08T12:30:45;101671.91;;;35.88;50.22
21109;BME280;10712;52.944;9.098;2023-09-08T12:33:12;101661.28;;;35.85;50.11
21109;BME280;10712;52.944;9.098;2023-09-08T12:35:43;101661.69;;;35.89;50.06
21109;BME280;10712;52.944;9.098;2023-09-08T12:38:13;101655.41;;;35.93;49.92
21109;BME280;10712;52.944;9.098;2023-09-08T12:40:40;101658.81;;;35.96;49.64
21109;BME280;10712;52.944;9.098;2023-09-08T12:43:06;101659.41;;;35.98;50.10
21109;BME280;10712;52.944;9.098;2023-09-08T12:45:32;101652.22;;;36.08;49.58
21109;BME280;10712;52.944;9.098;2023-09-08T12:48:00;101649.81;;;36.12;48.96
21109;BME280;10712;52.944;9.098;2023-09-08T12:50:30;101650.66;;;36.12;48.94
21109;BME280;10712;52.944;9.098;2023-09-08T12:52:56;101651.88;;;36.16;49.46
21109;BME280;10712;52.944;9.098;2023-09-08T12:55:23;101654.09;;;36.26;49.19
21109;BME280;10712;52.944;9.098;2023-09-08T12:57:50;101647.84;;;36.30;49.11
21109;BME280;10712;52.944;9.098;2023-09-08T13:00:17;101646.50;;;36.33;49.79
21109;BME280;10712;52.944;9.098;2023-09-08T13:02:44;101652.06;;;36.33;49.31
21109;BME280;10712;52.944;9.098;2023-09-08T13:05:10;101641.25;;;36.43;48.40